La Vega, Dominican Republic
Current Conditions -  °F | °C
As of 2:00 PM on Thursday 23 Oct 2014 (Local Time) from MDST Reporting Station
Scattered Clouds Scattered Clouds  
Wind Chill: 90°   Ceiling: Unl
Heat Index: 95°   Visibility: 6mi
Dew Point: 70°   Wind: 12mph
Humidity: 52%   Direction: 130°SE
Pressure: 29.85"   Gusts: NA
Location:  19.22°N, 70.53°W
Report Text: MDST 231800Z 13010KT 9999 FEW029 SCT300 32/21 Q1011 NOSIG
Loading
Personal Weather Stations






























Interactive Weather Map
Tropical Storm Tracking
New forecast layout! Learn more

10-Day Weather Forecast

Advertisements
Track Severe Weather on mobile